Time;durP1;ratioP1;P1;durP2;ratioP2;P2;SDS_P1;SDS_P2;PMS_P1;PMS_P2;Temp;Humidity;BMP_temperature;BMP_pressure;BME280_temperature;BME280_humidity;BME280_pressure;Samples;Min_cycle;Max_cycle;Signal;HPM_P1;HPM_P2
2022/10/20 04:01:28;;;;;;;19.17;11.10;;;11.90;99.90;;;;;;5483847;23;20510;-74
2022/10/20 04:03:55;;;;;;;19.50;9.40;;;11.90;99.90;;;;;;4928939;29;20462;-74
2022/10/20 04:06:22;;;;;;;14.13;9.73;;;11.90;99.90;;;;;;4928482;29;20461;-73
2022/10/20 04:08:48;;;;;;;16.50;10.73;;;11.90;99.90;;;;;;4929165;29;20760;-73
2022/10/20 04:11:15;;;;;;;21.63;10.90;;;11.90;99.90;;;;;;4921095;29;20506;-72
2022/10/20 04:13:42;;;;;;;18.37;10.47;;;11.90;99.90;;;;;;4911428;29;20463;-74
2022/10/20 04:16:09;;;;;;;20.60;10.73;;;11.90;99.90;;;;;;4910892;29;21026;-74
2022/10/20 04:18:37;;;;;;;22.73;11.27;;;11.90;99.90;;;;;;4911612;29;20839;-71
2022/10/20 04:21:06;;;;;;;15.83;10.07;;;12.00;99.90;;;;;;4910798;29;20483;-72
2022/10/20 04:23:33;;;;;;;19.27;11.80;;;11.90;99.90;;;;;;4911514;29;20470;-71
2022/10/20 04:26:00;;;;;;;20.73;12.70;;;11.90;99.90;;;;;;4910606;29;20465;-75
2022/10/20 04:28:26;;;;;;;17.00;11.53;;;11.90;99.90;;;;;;4911039;29;20474;-74
2022/10/20 04:30:53;;;;;;;17.80;12.03;;;11.90;99.90;;;;;;4909606;29;20495;-72
2022/10/20 04:33:20;;;;;;;17.63;11.87;;;11.90;99.90;;;;;;4911095;29;20463;-72
2022/10/20 04:35:48;;;;;;;21.60;12.40;;;11.90;99.90;;;;;;4910642;29;20503;-74
2022/10/20 04:38:15;;;;;;;24.38;14.43;;;11.80;99.90;;;;;;4910809;29;20451;-71
2022/10/20 04:40:41;;;;;;;19.00;11.90;;;12.00;99.90;;;;;;4911301;29;20581;-71
2022/10/20 04:43:08;;;;;;;21.27;12.20;;;12.00;99.90;;;;;;4910898;29;20467;-72
2022/10/20 04:45:36;;;;;;;18.83;12.17;;;12.00;99.90;;;;;;4909228;29;20455;-68
2022/10/20 04:48:04;;;;;;;22.50;13.43;;;12.10;99.90;;;;;;4909795;29;20463;-67
2022/10/20 04:50:31;;;;;;;24.73;14.13;;;12.00;99.90;;;;;;4909915;29;20487;-67
2022/10/20 04:53:00;;;;;;;25.83;14.80;;;11.90;99.90;;;;;;4909756;29;20463;-68
2022/10/20 04:55:27;;;;;;;22.47;14.27;;;11.90;99.90;;;;;;4908671;29;20999;-72
2022/10/20 04:57:54;;;;;;;24.90;15.30;;;11.90;99.90;;;;;;4909861;29;21278;-80
2022/10/20 05:00:20;;;;;;;22.97;13.17;;;12.00;99.90;;;;;;4910635;29;20801;-72
2022/10/20 05:02:47;;;;;;;27.13;15.20;;;12.00;99.90;;;;;;4912090;29;20462;-73
2022/10/20 05:05:14;;;;;;;26.00;14.83;;;11.90;99.90;;;;;;4911268;29;20459;-75
2022/10/20 05:07:41;;;;;;;26.30;14.80;;;12.00;99.90;;;;;;4912517;29;20466;-72
2022/10/20 05:10:09;;;;;;;24.90;15.30;;;12.00;99.90;;;;;;4911672;29;20671;-73
2022/10/20 05:12:36;;;;;;;23.47;15.80;;;12.00;99.90;;;;;;4911889;29;20837;-75
2022/10/20 05:15:03;;;;;;;30.27;16.40;;;12.00;99.90;;;;;;4910446;29;20495;-73
2022/10/20 05:17:30;;;;;;;24.57;15.20;;;11.90;99.90;;;;;;4911508;29;20474;-77
2022/10/20 05:19:57;;;;;;;31.83;14.90;;;12.00;99.90;;;;;;4911613;29;20482;-72
2022/10/20 05:22:24;;;;;;;25.70;15.50;;;12.00;99.90;;;;;;4911083;29;21014;-73
2022/10/20 05:24:51;;;;;;;27.10;15.53;;;12.00;99.90;;;;;;4910741;29;20824;-77
2022/10/20 05:27:19;;;;;;;21.73;14.50;;;12.00;99.90;;;;;;4911455;29;20463;-74
2022/10/20 05:29:45;;;;;;;25.80;15.90;;;12.00;99.90;;;;;;4911343;29;20470;-73
2022/10/20 05:32:12;;;;;;;27.37;15.80;;;12.10;99.90;;;;;;4909993;29;20483;-72
2022/10/20 05:34:39;;;;;;;26.73;16.00;;;12.10;99.90;;;;;;4910375;29;20470;-79
2022/10/20 05:37:06;;;;;;;25.60;15.10;;;12.10;99.90;;;;;;4911484;29;20469;-72
2022/10/20 05:39:32;;;;;;;24.57;15.03;;;12.20;99.90;;;;;;4911255;29;20459;-74
2022/10/20 05:41:59;;;;;;;25.77;15.20;;;12.10;99.90;;;;;;4911166;29;20483;-75
2022/10/20 05:44:27;;;;;;;24.37;16.43;;;12.20;99.90;;;;;;4910653;29;20466;-74
2022/10/20 05:46:54;;;;;;;26.83;16.17;;;12.10;99.90;;;;;;4910519;29;20978;-73
2022/10/20 05:49:22;;;;;;;23.07;15.50;;;12.20;99.90;;;;;;4910672;29;20475;-75
2022/10/20 05:51:49;;;;;;;25.87;15.30;;;12.10;99.90;;;;;;4911230;29;20538;-73
2022/10/20 05:54:16;;;;;;;26.10;14.30;;;12.10;99.90;;;;;;4911118;29;20474;-73
2022/10/20 05:56:43;;;;;;;21.20;14.53;;;12.10;99.90;;;;;;4914214;29;21037;-74
2022/10/20 05:59:10;;;;;;;22.50;15.00;;;12.10;99.90;;;;;;4914851;29;20478;-74
2022/10/20 06:01:46;;;;;;;19.70;14.23;;;12.10;99.90;;;;;;4914466;29;20614;-73
2022/10/20 06:04:15;;;;;;;19.37;12.90;;;12.00;99.90;;;;;;4914037;29;20553;-80
2022/10/20 06:06:42;;;;;;;21.60;13.50;;;12.00;99.90;;;;;;4914301;29;20455;-79
2022/10/20 06:09:10;;;;;;;23.97;14.17;;;12.10;99.90;;;;;;4913796;29;20834;-73
2022/10/20 06:11:38;;;;;;;20.20;13.47;;;12.00;99.90;;;;;;4914023;29;20486;-72
2022/10/20 06:14:05;;;;;;;20.40;12.43;;;12.10;99.90;;;;;;4912775;29;20463;-74
2022/10/20 06:16:32;;;;;;;23.17;12.43;;;12.10;99.90;;;;;;4913263;29;20502;-76
2022/10/20 06:19:01;;;;;;;19.97;13.30;;;12.10;99.90;;;;;;4913454;29;20452;-76
2022/10/20 06:21:30;;;;;;;18.53;11.70;;;12.10;99.90;;;;;;4913019;29;20960;-75
2022/10/20 06:23:58;;;;;;;18.77;12.50;;;12.10;99.90;;;;;;4913060;29;20467;-82
2022/10/20 06:26:28;;;;;;;17.53;11.73;;;12.10;99.90;;;;;;4913738;29;20522;-75
2022/10/20 06:28:56;;;;;;;17.60;12.60;;;12.10;99.90;;;;;;4913680;29;20499;-74
2022/10/20 06:31:25;;;;;;;18.03;11.13;;;12.10;99.90;;;;;;4912254;29;20491;-74
2022/10/20 06:33:52;;;;;;;19.27;12.57;;;12.10;99.90;;;;;;4913295;29;20443;-74
2022/10/20 06:36:22;;;;;;;20.10;11.60;;;12.10;99.90;;;;;;4912078;29;20498;-79
2022/10/20 06:38:52;;;;;;;18.97;12.27;;;12.10;99.90;;;;;;4913337;29;20463;-74
2022/10/20 06:41:19;;;;;;;26.00;11.77;;;12.10;99.90;;;;;;4912881;29;20526;-76
2022/10/20 06:43:46;;;;;;;14.77;11.00;;;12.10;99.90;;;;;;4912878;29;20456;-77
2022/10/20 06:46:15;;;;;;;21.80;11.20;;;12.20;99.90;;;;;;4912180;29;20475;-74
2022/10/20 06:48:43;;;;;;;17.47;11.20;;;12.20;99.90;;;;;;4913471;29;20462;-74
2022/10/20 06:51:12;;;;;;;15.47;10.80;;;12.20;99.90;;;;;;4912698;29;20479;-75
2022/10/20 06:53:41;;;;;;;15.60;10.97;;;12.20;99.90;;;;;;4912392;29;20839;-74
2022/10/20 06:56:11;;;;;;;13.23;9.50;;;12.30;99.90;;;;;;4911928;29;20495;-74
2022/10/20 06:58:39;;;;;;;15.60;10.47;;;12.30;99.90;;;;;;4912219;29;20486;-74
2022/10/20 07:01:08;;;;;;;13.23;10.07;;;12.30;99.90;;;;;;4912016;29;20495;-75
2022/10/20 07:03:36;;;;;;;14.23;10.43;;;12.30;99.90;;;;;;4912868;29;20474;-74
2022/10/20 07:06:04;;;;;;;14.20;10.37;;;12.40;99.90;;;;;;4911234;29;20474;-74
2022/10/20 07:08:33;;;;;;;11.93;9.17;;;12.40;99.90;;;;;;4912728;29;20822;-76
2022/10/20 07:11:04;;;;;;;13.30;9.97;;;12.40;99.90;;;;;;4912760;29;20487;-78
2022/10/20 07:13:31;;;;;;;15.93;9.20;;;12.50;99.90;;;;;;4912607;29;20470;-76
2022/10/20 07:15:59;;;;;;;11.70;8.63;;;12.50;99.90;;;;;;4912186;29;20499;-74
2022/10/20 07:18:27;;;;;;;14.53;8.80;;;12.60;99.90;;;;;;4912368;29;20469;-74
2022/10/20 07:20:56;;;;;;;12.00;9.00;;;12.60;99.90;;;;;;4912398;29;20487;-79
2022/10/20 07:23:23;;;;;;;14.00;9.13;;;12.70;99.90;;;;;;4912437;29;20471;-77
2022/10/20 07:25:50;;;;;;;12.30;8.93;;;12.70;99.90;;;;;;4911838;29;20827;-72
2022/10/20 07:28:20;;;;;;;13.70;8.87;;;12.70;99.90;;;;;;4912270;29;20960;-75
2022/10/20 07:30:47;;;;;;;12.73;8.37;;;12.80;99.90;;;;;;4910943;29;20487;-73
2022/10/20 07:33:14;;;;;;;9.73;7.10;;;12.80;99.90;;;;;;4912411;29;20454;-74
2022/10/20 07:35:41;;;;;;;12.27;9.10;;;12.90;99.90;;;;;;4911321;29;20495;-74
2022/10/20 07:38:08;;;;;;;9.70;7.67;;;12.90;99.90;;;;;;4912449;29;20530;-72
2022/10/20 07:40:35;;;;;;;11.17;7.70;;;12.90;99.90;;;;;;4911955;29;21019;-75
2022/10/20 07:43:02;;;;;;;9.27;7.53;;;13.00;99.90;;;;;;4912235;29;20482;-73
2022/10/20 07:45:32;;;;;;;9.30;7.90;;;13.10;99.90;;;;;;4911463;29;20462;-73
2022/10/20 07:47:59;;;;;;;11.70;7.63;;;13.10;99.90;;;;;;4912425;29;20452;-72
2022/10/20 07:50:27;;;;;;;11.43;8.57;;;13.20;99.90;;;;;;4912411;29;20467;-74
2022/10/20 07:52:54;;;;;;;9.80;7.63;;;13.20;99.90;;;;;;4912058;29;20486;-73
2022/10/20 07:55:21;;;;;;;10.20;7.03;;;13.30;99.90;;;;;;4911118;29;20467;-72
2022/10/20 07:57:48;;;;;;;8.93;7.23;;;13.40;99.90;;;;;;4912494;29;20463;-77
2022/10/20 08:00:15;;;;;;;8.63;7.73;;;13.50;99.90;;;;;;4912236;29;21295;-72
2022/10/20 08:02:44;;;;;;;10.70;7.03;;;13.60;99.90;;;;;;4912337;29;20470;-72
2022/10/20 08:05:11;;;;;;;9.07;6.70;;;13.70;99.90;;;;;;4911679;29;20847;-72
2022/10/20 08:07:38;;;;;;;9.07;6.70;;;13.90;99.90;;;;;;4912786;29;20455;-74
2022/10/20 08:10:06;;;;;;;8.50;6.60;;;14.00;99.90;;;;;;4912235;29;20462;-73
2022/10/20 08:12:33;;;;;;;9.23;6.27;;;14.00;99.90;;;;;;4912466;29;20485;-72
2022/10/20 08:15:00;;;;;;;6.07;5.47;;;14.10;99.90;;;;;;4911116;29;20998;-72
2022/10/20 08:17:26;;;;;;;8.73;6.00;;;14.20;99.90;;;;;;4911321;29;20506;-80
2022/10/20 08:19:54;;;;;;;11.37;6.77;;;14.30;99.90;;;;;;4911892;29;20474;-72
2022/10/20 08:22:21;;;;;;;8.10;5.87;;;14.30;99.90;;;;;;4911852;29;20483;-72
2022/10/20 08:24:48;;;;;;;8.40;5.80;;;14.40;99.90;;;;;;4911054;29;20467;-73
2022/10/20 08:27:15;;;;;;;6.40;5.60;;;14.50;99.90;;;;;;4912106;29;20455;-73
2022/10/20 08:29:42;;;;;;;7.43;5.13;;;14.60;99.90;;;;;;4912347;29;20466;-73
2022/10/20 08:32:11;;;;;;;6.93;5.57;;;14.70;99.90;;;;;;4911699;29;21040;-74
2022/10/20 08:34:38;;;;;;;7.50;6.23;;;14.80;99.90;;;;;;4911383;29;20466;-73
2022/10/20 08:37:06;;;;;;;6.40;5.50;;;14.90;99.90;;;;;;4911580;29;20502;-81
2022/10/20 08:39:33;;;;;;;5.70;5.10;;;15.00;99.90;;;;;;4912018;29;20459;-73
2022/10/20 08:42:02;;;;;;;8.90;6.27;;;15.00;99.90;;;;;;4911713;29;20581;-73
2022/10/20 08:44:32;;;;;;;6.20;4.60;;;15.10;99.90;;;;;;4911118;29;20463;-73
2022/10/20 08:47:01;;;;;;;10.37;5.67;;;15.30;99.90;;;;;;4911974;29;20467;-74
2022/10/20 08:49:31;;;;;;;6.87;5.33;;;15.40;99.90;;;;;;4911883;29;20459;-77
2022/10/20 08:51:58;;;;;;;6.30;5.30;;;15.50;99.90;;;;;;4912155;29;20475;-73
2022/10/20 08:54:27;;;;;;;6.97;4.73;;;15.60;99.90;;;;;;4911185;29;20467;-76
2022/10/20 08:56:53;;;;;;;6.03;4.57;;;15.70;99.90;;;;;;4911524;29;20495;-79
2022/10/20 08:59:28;;;;;;;9.63;5.30;;;15.70;99.90;;;;;;4911676;29;20975;-73
2022/10/20 09:01:56;;;;;;;5.63;4.00;;;15.90;99.90;;;;;;4911396;29;20527;-73
2022/10/20 09:04:26;;;;;;;7.00;5.57;;;16.10;99.90;;;;;;4910844;29;20474;-73
2022/10/20 09:06:57;;;;;;;6.27;5.13;;;16.20;99.90;;;;;;4912035;29;20455;-74
2022/10/20 09:09:28;;;;;;;5.93;4.00;;;16.40;99.90;;;;;;4911838;29;20459;-73
2022/10/20 09:12:03;;;;;;;6.80;5.33;;;16.50;99.90;;;;;;4909042;29;20479;-68
2022/10/20 09:14:32;;;;;;;11.17;5.17;;;16.50;99.90;;;;;;4908888;29;20462;-68
2022/10/20 09:16:59;;;;;;;7.93;4.67;;;16.70;99.90;;;;;;4909209;29;20503;-68
2022/10/20 09:19:26;;;;;;;5.57;4.43;;;16.90;99.90;;;;;;4909123;29;20459;-68
2022/10/20 09:21:56;;;;;;;4.20;3.80;;;16.90;99.90;;;;;;4909218;29;20495;-68
2022/10/20 09:24:26;;;;;;;4.47;4.07;;;17.10;99.90;;;;;;4908355;29;20467;-69
2022/10/20 09:26:54;;;;;;;6.07;4.33;;;17.10;99.90;;;;;;4909299;29;20558;-69
2022/10/20 09:29:22;;;;;;;4.67;4.00;;;17.20;99.90;;;;;;4910378;29;20458;-69
2022/10/20 09:31:52;;;;;;;6.37;4.43;;;17.30;99.90;;;;;;4911313;29;20486;-69
2022/10/20 09:34:23;;;;;;;4.53;3.90;;;17.40;99.90;;;;;;4911927;29;20452;-70
2022/10/20 09:36:52;;;;;;;5.17;4.17;;;17.60;99.90;;;;;;4914126;29;20495;-75
2022/10/20 09:39:21;;;;;;;6.10;4.70;;;17.70;99.90;;;;;;4914642;29;20935;-78
2022/10/20 09:41:49;;;;;;;6.10;3.80;;;17.80;99.90;;;;;;4914892;29;20491;-76
2022/10/20 09:44:22;;;;;;;5.37;4.13;;;17.90;99.90;;;;;;4914180;29;20465;-82
2022/10/20 09:46:52;;;;;;;5.20;4.70;;;18.00;99.90;;;;;;4915374;29;20443;-75
2022/10/20 09:49:28;;;;;;;6.23;3.60;;;18.20;99.90;;;;;;4915010;29;20503;-73
2022/10/20 09:51:55;;;;;;;4.87;3.97;;;18.50;99.90;;;;;;4914491;29;20486;-73
2022/10/20 09:54:24;;;;;;;4.60;3.43;;;18.80;99.90;;;;;;4913343;29;20470;-80
2022/10/20 09:56:53;;;;;;;4.70;3.67;;;18.90;99.90;;;;;;4913916;29;20491;-73
2022/10/20 09:59:24;;;;;;;3.53;3.20;;;19.00;99.90;;;;;;4914271;29;20466;-76
2022/10/20 10:01:56;;;;;;;3.93;3.10;;;19.20;99.90;;;;;;4913537;29;20495;-77
2022/10/20 10:04:33;;;;;;;4.23;3.30;;;19.30;99.90;;;;;;4912635;29;20470;-73
2022/10/20 10:06:59;;;;;;;7.40;4.10;;;19.20;99.90;;;;;;4913484;29;20459;-77
2022/10/20 10:09:30;;;;;;;5.40;3.63;;;19.30;99.90;;;;;;4913298;29;20474;-75
2022/10/20 10:12:00;;;;;;;5.57;3.47;;;19.30;99.90;;;;;;4913182;29;20906;-73
2022/10/20 10:14:29;;;;;;;4.80;3.23;;;19.20;99.90;;;;;;4912888;29;20460;-76
2022/10/20 10:16:56;;;;;;;3.90;3.50;;;19.30;99.90;;;;;;4914236;29;20896;-76
2022/10/20 10:19:26;;;;;;;5.20;3.30;;;19.30;99.90;;;;;;4913725;29;20467;-74
2022/10/20 10:21:55;;;;;;;5.40;3.30;;;19.40;99.90;;;;;;4913329;29;20479;-74
2022/10/20 10:24:38;;;;;;;7.23;3.37;;;19.50;99.90;;;;;;4912107;29;20510;-75
2022/10/20 10:27:18;;;;;;;4.20;3.50;;;19.60;99.90;;;;;;4913092;29;20499;-74
2022/10/20 10:29:46;;;;;;;6.63;3.20;;;19.70;99.90;;;;;;4912967;29;20494;-74
2022/10/20 10:32:16;;;;;;;3.73;3.33;;;19.80;99.90;;;;;;4910990;29;20482;-74
2022/10/20 10:34:55;;;;;;;5.50;3.73;;;19.70;99.90;;;;;;4911584;29;20975;-74
2022/10/20 10:37:22;;;;;;;4.00;3.13;;;19.80;99.90;;;;;;4911892;29;20499;-74
2022/10/20 10:39:49;;;;;;;8.80;3.80;;;19.80;99.90;;;;;;4912065;29;20471;-75
2022/10/20 10:42:54;;;;;;;5.20;4.00;;;19.80;99.90;;;;;;4911721;29;20487;-75
2022/10/20 10:45:41;;;;;;;7.47;3.70;;;19.80;99.90;;;;;;4910952;29;20837;-78
2022/10/20 10:48:45;;;;;;;4.53;3.90;;;19.90;99.90;;;;;;4912337;29;20450;-77
2022/10/20 10:51:20;;;;;;;4.80;3.40;;;19.90;99.90;;;;;;4912292;29;20483;-74
2022/10/20 10:53:59;;;;;;;4.20;3.23;;;19.90;99.90;;;;;;4911654;29;20462;-75
2022/10/20 10:56:33;;;;;;;3.90;3.00;;;19.90;99.90;;;;;;4911856;29;20530;-75
2022/10/20 10:59:05;;;;;;;4.00;3.60;;;20.10;99.90;;;;;;4912876;29;20443;-74
2022/10/20 11:01:50;;;;;;;5.93;3.83;;;20.10;99.90;;;;;;4912224;29;20491;-79
2022/10/20 11:04:45;;;;;;;4.37;3.60;;;20.20;99.90;;;;;;4911764;29;20469;-73
2022/10/20 11:07:22;;;;;;;4.03;3.50;;;20.30;99.90;;;;;;4913070;29;20443;-73
2022/10/20 11:10:02;;;;;;;4.93;3.90;;;20.30;99.90;;;;;;4912254;29;20440;-80
2022/10/20 11:12:44;;;;;;;6.07;3.00;;;20.30;99.90;;;;;;4911773;29;20482;-72
2022/10/20 11:15:29;;;;;;;4.80;3.40;;;20.30;99.90;;;;;;4911271;29;20943;-74
2022/10/20 11:18:06;;;;;;;3.77;3.20;;;20.30;99.90;;;;;;4911992;29;20490;-79
2022/10/20 11:20:40;;;;;;;7.23;3.70;;;20.40;99.90;;;;;;4911664;29;20482;-79
2022/10/20 11:23:31;;;;;;;8.60;3.53;;;20.50;99.90;;;;;;4911597;29;20454;-74
2022/10/20 11:26:05;;;;;;;3.97;3.43;;;20.60;99.90;;;;;;4911763;29;20448;-73
2022/10/20 11:28:42;;;;;;;4.20;3.80;;;20.50;99.90;;;;;;4911940;29;20451;-73
2022/10/20 11:31:20;;;;;;;5.90;3.33;;;20.50;99.90;;;;;;4911923;29;20494;-76
2022/10/20 11:33:54;;;;;;;3.93;3.53;;;20.40;99.90;;;;;;4912076;29;20454;-78
2022/10/20 11:36:23;;;;;;;4.90;3.87;;;20.40;99.90;;;;;;4911508;29;20455;-75
2022/10/20 11:38:52;;;;;;;4.10;3.70;;;20.40;99.90;;;;;;4911522;29;20451;-76
2022/10/20 11:41:25;;;;;;;6.13;3.97;;;20.40;99.90;;;;;;4911218;29;20975;-75
2022/10/20 11:43:58;;;;;;;6.40;3.60;;;20.40;99.90;;;;;;4909494;29;20466;-77
2022/10/20 11:46:34;;;;;;;4.13;3.73;;;20.30;99.90;;;;;;4909438;29;20456;-77
2022/10/20 11:49:03;;;;;;;4.40;3.57;;;20.30;99.90;;;;;;4911249;29;20451;-73
2022/10/20 11:51:57;;;;;;;5.53;3.30;;;20.30;99.90;;;;;;4909465;29;20483;-74
2022/10/20 11:54:52;;;;;;;7.17;3.70;;;20.20;99.90;;;;;;4910134;29;20446;-76
2022/10/20 11:57:32;;;;;;;4.53;3.90;;;20.20;99.90;;;;;;4911049;29;20506;-74
2022/10/20 12:00:23;;;;;;;5.03;3.63;;;20.10;99.90;;;;;;4909014;29;20466;-77
2022/10/20 12:03:26;;;;;;;4.93;3.53;;;20.20;99.90;;;;;;4910107;29;20489;-76
2022/10/20 12:06:19;;;;;;;3.87;3.43;;;20.20;99.90;;;;;;4875308;29;20470;-73
2022/10/20 12:09:17;;;;;;;8.07;4.00;;;20.10;99.90;;;;;;4910555;29;20447;-73
2022/10/20 12:11:52;;;;;;;6.43;4.33;;;20.10;99.90;;;;;;4910279;29;20471;-76
2022/10/20 12:14:26;;;;;;;8.30;4.50;;;20.10;99.90;;;;;;4909632;29;20454;-76
2022/10/20 12:17:23;;;;;;;6.30;3.80;;;20.00;99.90;;;;;;4909516;29;21103;-73
2022/10/20 12:19:51;;;;;;;5.77;3.70;;;20.00;99.90;;;;;;4898369;29;20467;-73
2022/10/20 12:22:39;;;;;;;5.27;4.23;;;19.90;99.90;;;;;;4910164;29;20486;-73
2022/10/20 12:25:23;;;;;;;8.53;4.00;;;19.80;99.90;;;;;;4909611;29;20887;-73
2022/10/20 12:28:23;;;;;;;9.67;4.53;;;19.70;99.90;;;;;;4910114;29;20511;-73
2022/10/20 12:30:55;;;;;;;8.40;4.13;;;19.70;99.90;;;;;;4910449;29;20482;-74
2022/10/20 12:33:36;;;;;;;6.00;4.03;;;19.80;99.90;;;;;;4910096;29;20475;-73
2022/10/20 12:36:29;;;;;;;7.47;4.07;;;19.80;99.90;;;;;;4908882;29;20454;-74
2022/10/20 12:39:20;;;;;;;6.60;3.60;;;19.80;99.90;;;;;;4910166;29;20558;-75
2022/10/20 12:41:59;;;;;;;6.43;3.70;;;19.80;99.90;;;;;;4909737;29;20488;-74
2022/10/20 12:44:29;;;;;;;5.57;3.80;;;19.70;99.90;;;;;;4908854;29;20462;-74
2022/10/20 12:47:03;;;;;;;8.27;4.50;;;19.60;99.90;;;;;;4909237;29;20805;-75
2022/10/20 12:49:33;;;;;;;5.20;3.97;;;19.60;99.90;;;;;;4910170;29;20451;-74
2022/10/20 12:52:01;;;;;;;5.97;4.03;;;19.70;99.90;;;;;;4909416;29;20505;-75
2022/10/20 12:54:40;;;;;;;7.77;3.93;;;19.60;99.90;;;;;;4909334;29;20459;-74
2022/10/20 12:57:27;;;;;;;4.07;3.67;;;19.60;99.90;;;;;;4909364;29;20514;-74
2022/10/20 12:59:54;;;;;;;8.47;3.80;;;19.60;99.90;;;;;;4909288;29;20471;-75
2022/10/20 13:02:53;;;;;;;9.00;4.10;;;19.50;99.90;;;;;;4909354;29;20861;-74
2022/10/20 13:05:45;;;;;;;4.90;3.93;;;19.50;99.90;;;;;;4904479;29;20471;-74
2022/10/20 13:08:25;;;;;;;7.13;4.30;;;19.50;99.90;;;;;;4909211;29;20924;-74
2022/10/20 13:10:53;;;;;;;5.20;3.80;;;19.40;99.90;;;;;;4909561;29;20485;-74
2022/10/20 13:13:55;;;;;;;5.80;3.30;;;19.40;99.90;;;;;;4909437;29;20828;-74
2022/10/20 13:16:23;;;;;;;6.70;3.60;;;19.40;99.90;;;;;;4908760;29;20827;-74
2022/10/20 13:18:53;;;;;;;5.20;3.80;;;19.40;99.90;;;;;;4908806;29;20499;-77
2022/10/20 13:21:28;;;;;;;5.90;4.40;;;19.40;99.90;;;;;;4908855;29;20485;-78
2022/10/20 13:24:02;;;;;;;4.70;3.77;;;19.40;99.90;;;;;;4909175;29;20458;-78
2022/10/20 13:26:36;;;;;;;5.93;3.90;;;19.30;99.90;;;;;;4909665;29;20455;-76
2022/10/20 13:29:10;;;;;;;6.13;4.30;;;19.30;99.90;;;;;;4909511;29;20443;-75
2022/10/20 13:31:44;;;;;;;4.70;4.23;;;19.20;99.90;;;;;;4909444;29;20482;-78
2022/10/20 13:34:18;;;;;;;8.83;4.80;;;19.10;99.90;;;;;;4908466;29;20975;-78
2022/10/20 13:36:59;;;;;;;5.00;3.97;;;19.10;99.90;;;;;;4908863;29;20817;-75
2022/10/20 13:39:35;;;;;;;6.53;4.60;;;19.00;99.90;;;;;;4909710;29;20812;-77
2022/10/20 13:42:13;;;;;;;7.80;4.30;;;19.00;99.90;;;;;;4909284;29;20479;-77
2022/10/20 13:44:52;;;;;;;10.33;5.43;;;19.00;99.90;;;;;;4907921;29;20952;-75
2022/10/20 13:47:44;;;;;;;7.70;5.30;;;18.90;99.90;;;;;;4909585;29;20451;-76
2022/10/20 13:50:14;;;;;;;8.40;4.43;;;18.80;99.90;;;;;;4909164;29;20459;-77
2022/10/20 13:52:46;;;;;;;8.97;4.73;;;18.80;99.90;;;;;;4909289;29;20459;-75
2022/10/20 13:55:18;;;;;;;8.30;4.77;;;18.80;99.90;;;;;;4908481;29;20451;-75
2022/10/20 13:57:52;;;;;;;8.50;5.70;;;18.80;99.90;;;;;;4908891;29;20523;-75
2022/10/20 14:00:22;;;;;;;12.50;6.97;;;18.80;99.90;;;;;;4909046;29;20467;-75
2022/10/20 14:02:55;;;;;;;22.13;12.30;;;18.80;99.90;;;;;;4909067;29;20652;-75
2022/10/20 14:05:22;;;;;;;9.30;7.00;;;18.90;99.90;;;;;;4908126;29;20486;-76
2022/10/20 14:07:49;;;;;;;7.00;5.47;;;18.90;99.90;;;;;;4908800;29;21005;-76
2022/10/20 14:10:25;;;;;;;11.40;6.07;;;18.80;99.90;;;;;;4908551;29;20871;-76
2022/10/20 14:12:55;;;;;;;7.47;5.27;;;18.70;99.90;;;;;;4908505;29;20467;-75
2022/10/20 14:15:29;;;;;;;10.03;6.10;;;18.70;99.90;;;;;;4909601;29;20459;-76
2022/10/20 14:17:58;;;;;;;8.30;4.97;;;18.70;99.90;;;;;;4911680;29;20490;-75
2022/10/20 14:20:26;;;;;;;6.30;5.60;;;18.70;99.90;;;;;;4911551;29;20466;-73
2022/10/20 14:22:54;;;;;;;7.80;5.20;;;18.70;99.90;;;;;;4911969;29;20470;-78
2022/10/20 14:25:22;;;;;;;12.00;5.90;;;18.70;99.90;;;;;;4911646;29;20492;-76
2022/10/20 14:27:50;;;;;;;11.40;5.40;;;18.70;99.90;;;;;;4911601;29;21009;-75
2022/10/20 14:30:19;;;;;;;7.13;5.03;;;18.60;99.90;;;;;;4911996;29;20470;-75
2022/10/20 14:32:47;;;;;;;5.30;4.80;;;18.60;99.90;;;;;;4911837;29;20490;-76
2022/10/20 14:35:29;;;;;;;9.33;4.87;;;18.60;99.90;;;;;;4911042;29;20474;-74
2022/10/20 14:38:00;;;;;;;9.40;5.70;;;18.60;99.90;;;;;;4911623;29;20857;-75
2022/10/20 14:40:29;;;;;;;11.67;7.03;;;18.60;99.90;;;;;;4912001;29;20972;-74
2022/10/20 14:43:02;;;;;;;7.80;5.60;;;18.50;99.90;;;;;;4911527;29;20464;-74
2022/10/20 14:45:30;;;;;;;8.67;6.50;;;18.50;99.90;;;;;;4911309;29;20471;-76
2022/10/20 14:47:59;;;;;;;9.50;6.13;;;18.60;99.90;;;;;;4911888;29;20460;-74
2022/10/20 14:50:32;;;;;;;6.77;5.30;;;18.60;99.90;;;;;;4911132;29;20971;-76
2022/10/20 14:53:18;;;;;;;10.63;5.87;;;18.50;99.90;;;;;;4911766;29;20443;-78
2022/10/20 14:55:45;;;;;;;7.50;4.90;;;18.50;99.90;;;;;;4911138;29;20440;-74
2022/10/20 14:58:30;;;;;;;6.60;5.77;;;18.60;99.90;;;;;;4911201;29;20554;-75
2022/10/20 15:01:17;;;;;;;9.63;6.30;;;18.50;99.90;;;;;;4911478;29;20490;-74
2022/10/20 15:03:44;;;;;;;15.20;6.60;;;18.50;99.90;;;;;;4911125;29;20444;-75
2022/10/20 15:06:16;;;;;;;9.50;6.17;;;18.50;99.90;;;;;;4910455;29;20456;-76
2022/10/20 15:08:53;;;;;;;9.40;6.80;;;18.40;99.90;;;;;;4911271;29;21280;-79
2022/10/20 15:11:21;;;;;;;8.13;6.30;;;18.50;99.90;;;;;;4911066;29;20471;-74
2022/10/20 15:13:51;;;;;;;10.13;5.90;;;18.40;99.90;;;;;;4911577;29;20459;-76
2022/10/20 15:16:41;;;;;;;11.90;5.50;;;18.40;99.90;;;;;;4910713;29;20451;-74
2022/10/20 15:19:12;;;;;;;6.73;6.00;;;18.40;99.90;;;;;;4910245;29;20507;-74
2022/10/20 15:21:39;;;;;;;7.20;6.10;;;18.40;99.90;;;;;;4911222;29;20487;-70
2022/10/20 15:24:05;;;;;;;11.13;6.53;;;18.40;99.90;;;;;;4910236;29;20461;-69
2022/10/20 15:26:32;;;;;;;7.90;6.17;;;18.30;99.90;;;;;;4909583;29;20266;-75
2022/10/20 15:28:59;;;;;;;13.63;6.90;;;18.40;99.90;;;;;;4910420;29;21104;-77
2022/10/20 15:31:28;;;;;;;7.87;5.87;;;18.30;99.90;;;;;;4911056;29;20475;-76
2022/10/20 15:33:57;;;;;;;12.07;6.07;;;18.30;99.90;;;;;;4910777;29;20451;-75
2022/10/20 15:36:28;;;;;;;11.63;6.30;;;18.20;99.90;;;;;;4910814;29;20459;-75
2022/10/20 15:38:55;;;;;;;11.03;6.90;;;18.20;99.90;;;;;;4910533;29;20527;-75
2022/10/20 15:41:24;;;;;;;13.30;7.70;;;18.20;99.90;;;;;;4910583;29;20861;-74
2022/10/20 15:43:50;;;;;;;10.70;6.90;;;18.20;99.90;;;;;;4910636;29;20472;-74
2022/10/20 15:46:18;;;;;;;10.30;7.00;;;18.10;99.90;;;;;;4909829;29;20479;-75
2022/10/20 15:48:45;;;;;;;11.63;8.27;;;18.10;99.90;;;;;;4910144;29;20459;-78
2022/10/20 15:51:17;;;;;;;13.10;8.60;;;18.10;99.90;;;;;;4910708;29;20487;-75
2022/10/20 15:53:44;;;;;;;20.47;9.57;;;18.10;99.90;;;;;;4910346;29;20459;-74
2022/10/20 15:56:11;;;;;;;13.33;8.67;;;18.00;99.90;;;;;;4909303;29;20534;-74
2022/10/20 15:58:38;;;;;;;15.00;9.30;;;18.00;99.90;;;;;;4910492;29;20487;-75
2022/10/20 16:01:05;;;;;;;13.20;9.57;;;18.00;99.90;;;;;;4909897;29;20491;-78
2022/10/20 16:03:32;;;;;;;9.97;8.00;;;18.00;99.90;;;;;;4910041;29;20459;-75
2022/10/20 16:05:58;;;;;;;13.73;7.60;;;18.00;99.90;;;;;;4909683;29;20501;-75
2022/10/20 16:08:27;;;;;;;10.90;7.30;;;18.00;99.90;;;;;;4910196;29;20462;-75
2022/10/20 16:10:55;;;;;;;13.87;7.50;;;17.90;99.90;;;;;;4909406;29;20498;-78
2022/10/20 16:13:21;;;;;;;11.57;7.70;;;17.90;99.90;;;;;;4909964;29;20462;-75
2022/10/20 16:15:48;;;;;;;11.20;7.57;;;17.90;99.90;;;;;;4909226;29;20828;-75
2022/10/20 16:18:15;;;;;;;16.80;7.60;;;17.90;99.90;;;;;;4909457;29;20503;-74
2022/10/20 16:20:42;;;;;;;9.67;7.87;;;17.80;99.90;;;;;;4910006;29;20487;-77
2022/10/20 16:23:08;;;;;;;7.90;7.07;;;17.70;99.90;;;;;;4909985;29;20922;-74
2022/10/20 16:25:39;;;;;;;8.67;6.50;;;17.70;99.90;;;;;;4908963;29;20474;-75
2022/10/20 16:28:06;;;;;;;11.60;7.47;;;17.70;99.90;;;;;;4909902;29;20451;-75
2022/10/20 16:30:32;;;;;;;20.53;14.33;;;17.70;99.90;;;;;;4909613;29;20474;-74
2022/10/20 16:32:59;;;;;;;13.60;9.00;;;17.70;99.90;;;;;;4909837;29;20464;-74
2022/10/20 16:35:26;;;;;;;12.57;7.20;;;17.70;99.90;;;;;;4909038;29;20476;-74
2022/10/20 16:37:53;;;;;;;8.80;7.43;;;17.70;99.90;;;;;;4908959;29;20471;-74
2022/10/20 16:40:20;;;;;;;8.60;7.70;;;17.60;99.90;;;;;;4909310;29;20506;-74
2022/10/20 16:42:48;;;;;;;20.00;8.07;;;17.50;99.90;;;;;;4909429;29;20470;-74
2022/10/20 16:45:15;;;;;;;13.13;9.03;;;17.50;99.90;;;;;;4907750;29;20469;-74
2022/10/20 16:47:42;;;;;;;14.57;8.97;;;17.50;99.90;;;;;;4907331;29;20481;-74
2022/10/20 16:50:09;;;;;;;18.60;8.80;;;17.50;99.90;;;;;;4905954;29;20461;-73
2022/10/20 16:52:36;;;;;;;11.27;8.27;;;17.50;99.90;;;;;;4905158;29;20487;-73
2022/10/20 16:55:03;;;;;;;10.13;8.40;;;17.40;99.90;;;;;;4905929;29;20512;-72
2022/10/20 16:57:36;;;;;;;13.37;7.70;;;17.40;99.90;;;;;;4906341;29;20467;-75
2022/10/20 17:00:05;;;;;;;11.77;8.60;;;17.40;99.90;;;;;;4906837;29;20479;-73
2022/10/20 17:02:34;;;;;;;13.80;9.57;;;17.40;99.90;;;;;;4906686;29;20487;-72